North West — NTHWST — position and weather

sailwx.info

Track history (hours):
 
Tides and Currents Weather Stations Pressure Air Temp Water Temp Dewpoint Dewpoint Depression Visibility Wind Speed Wind Dir Waves Ship Positions

North West

Last reported at 2018-Jun-17 03:19 UTC. Time now 2018-Jun-23 08:22 UTC.
Position S 27°27' E 153°06'.

Length 20 m; draft 1.5 m.

Type: Pleasure craft. MMSI: 503026110.

Date/timePositionNaut miles runAvg speedWind from/ knotsBaromVisibWave heightAir tempDewpointWater temp
2018-Jun-17 03:19S 27°27' E 153°06'12 5.3
2018-Jun-17 01:03S 27°27' E 153°20'1 8.3
2018-Jun-17 00:59S 27°28' E 153°20'3 6.1
2018-Jun-17 00:24S 27°29' E 153°24'1 2.4
2018-Jun-16 23:57S 27°28' E 153°25'0 0.0
2018-Jun-16 23:24S 27°28' E 153°25'0 0.0
2018-Jun-16 22:54S 27°28' E 153°25'0 0.0
2018-Jun-16 22:30S 27°28' E 153°25'0 0.0
2018-Jun-16 16:45S 27°28' E 153°25'0 0.0
2018-Jun-16 14:30S 27°28' E 153°25'0 0.0
2018-Jun-16 14:00S 27°28' E 153°25'0 0.0
2018-Jun-16 13:27S 27°28' E 153°25'0 0.0
2018-Jun-16 12:45S 27°28' E 153°25'0 0.0
2018-Jun-16 12:30S 27°28' E 153°25'0 0.0
2018-Jun-16 12:00S 27°28' E 153°25'0 0.0
2018-Jun-16 11:30S 27°28' E 153°25'0 0.0
2018-Jun-16 11:00S 27°28' E 153°25'0 0.0
2018-Jun-16 10:30S 27°28' E 153°25'0 0.0
2018-Jun-16 04:45S 27°28' E 153°25'0 0.0
2018-Jun-16 04:24S 27°28' E 153°25'0 0.0
2018-Jun-16 04:00S 27°28' E 153°25'0 0.0
2018-Jun-16 01:51S 27°28' E 153°25'0 0.0
2018-Jun-16 01:21S 27°28' E 153°25'0 0.0
2018-Jun-16 00:54S 27°28' E 153°25'0 0.0
2018-Jun-16 00:30S 27°28' E 153°25'0 0.0
2018-Jun-15 23:51S 27°28' E 153°25'0 0.0
2018-Jun-15 23:21S 27°28' E 153°25'0 0.0
2018-Jun-15 22:54S 27°28' E 153°25'0 0.0
2018-Jun-15 21:54S 27°28' E 153°25'0 0.0
2018-Jun-15 20:51S 27°28' E 153°25'0 0.0
2018-Jun-15 18:48S 27°28' E 153°25'0 0.0
2018-Jun-15 17:48S 27°28' E 153°25'0 0.0
2018-Jun-15 17:09S 27°28' E 153°25'0 0.0
2018-Jun-15 16:39S 27°28' E 153°25'0 0.0
2018-Jun-15 13:57S 27°28' E 153°25'0 0.0
2018-Jun-15 12:33S 27°28' E 153°25'0 0.0
2018-Jun-15 12:27S 27°28' E 153°25'0 0.0
2018-Jun-15 09:51S 27°28' E 153°25'0 0.0
2018-Jun-15 09:30S 27°28' E 153°25'1 1.1
2018-Jun-15 08:51S 27°28' E 153°24'2 4.9
2018-Jun-15 08:30S 27°29' E 153°23'4 8.0
2018-Jun-15 08:00S 27°28' E 153°19'4 8.4
2018-Jun-15 07:30S 27°27' E 153°14'  
2018-Jun-10 01:44S 27°30' E 153°22'0 0.0
2018-Jun-10 01:29S 27°30' E 153°22'0 0.0
2018-Jun-10 00:56S 27°30' E 153°22'0 0.0
2018-Jun-10 00:29S 27°30' E 153°22'0 0.0
2018-Jun-09 23:59S 27°30' E 153°22'0 0.0
2018-Jun-09 23:23S 27°30' E 153°22'0 0.0
2018-Jun-09 23:01S 27°30' E 153°22'4 7.6
2018-Jun-09 22:30S 27°34' E 153°24'4 7.9
2018-Jun-09 22:00S 27°37' E 153°24'1 1.7
2018-Jun-09 21:30S 27°38' E 153°25'0 0.0
2018-Jun-09 21:01S 27°38' E 153°25'0 0.0
2018-Jun-09 20:30S 27°38' E 153°25'0 0.0
2018-Jun-09 20:00S 27°38' E 153°25'0 0.0
2018-Jun-09 19:30S 27°38' E 153°25'0 0.0
2018-Jun-09 19:00S 27°38' E 153°25'0 0.0
2018-Jun-09 18:30S 27°38' E 153°25'0 0.0
2018-Jun-09 18:00S 27°38' E 153°25'0 0.0
2018-Jun-09 17:30S 27°38' E 153°25'0 0.0
2018-Jun-09 16:58S 27°38' E 153°25'0 0.0
2018-Jun-09 16:30S 27°38' E 153°25'0 0.0
2018-Jun-09 16:00S 27°38' E 153°25'0 0.0
2018-Jun-09 15:31S 27°38' E 153°25'0 0.0
2018-Jun-09 14:30S 27°38' E 153°25'0 0.0
2018-Jun-09 14:00S 27°38' E 153°25'0 0.0
2018-Jun-09 13:31S 27°38' E 153°25'0 0.0
2018-Jun-09 12:59S 27°38' E 153°25'0 0.0
2018-Jun-09 12:30S 27°38' E 153°25'0 0.0
2018-Jun-09 12:00S 27°38' E 153°25'0 0.0
2018-Jun-09 11:31S 27°38' E 153°25'0 0.0
2018-Jun-09 11:00S 27°38' E 153°25'0 0.0
2018-Jun-09 10:30S 27°38' E 153°25'0 0.0
2018-Jun-09 10:01S 27°38' E 153°25'0 0.0
2018-Jun-09 09:29S 27°38' E 153°25'0 0.0
2018-Jun-09 09:01S 27°38' E 153°25'0 0.0
2018-Jun-09 08:30S 27°38' E 153°25'0 0.0
2018-Jun-09 08:00S 27°38' E 153°25'0 0.8
2018-Jun-09 07:30S 27°38' E 153°25'4 8.6
2018-Jun-09 07:00S 27°34' E 153°24'  
Track history (hours):
 
Tides and Currents Weather Stations Pressure Air Temp Water Temp Dewpoint Dewpoint Depression Visibility Wind Speed Wind Dir Waves Ship Positions

North West

Last reported at 2018-Jun-17 03:19 UTC. Time now 2018-Jun-23 08:22 UTC.
Position S 27°27' E 153°06'.

Length 20 m; draft 1.5 m.

Type: Pleasure craft. MMSI: 503026110.

Date/timePositionNaut miles runAvg speedWind from/ knotsBaromVisibWave heightAir tempDewpointWater temp
2018-Jun-17 03:19S 27°27' E 153°06'12 5.3
2018-Jun-17 01:03S 27°27' E 153°20'1 8.3
2018-Jun-17 00:59S 27°28' E 153°20'3 6.1
2018-Jun-17 00:24S 27°29' E 153°24'1 2.4
2018-Jun-16 23:57S 27°28' E 153°25'0 0.0
2018-Jun-16 23:24S 27°28' E 153°25'0 0.0
2018-Jun-16 22:54S 27°28' E 153°25'0 0.0
2018-Jun-16 22:30S 27°28' E 153°25'0 0.0
2018-Jun-16 16:45S 27°28' E 153°25'0 0.0
2018-Jun-16 14:30S 27°28' E 153°25'0 0.0
2018-Jun-16 14:00S 27°28' E 153°25'0 0.0
2018-Jun-16 13:27S 27°28' E 153°25'0 0.0
2018-Jun-16 12:45S 27°28' E 153°25'0 0.0
2018-Jun-16 12:30S 27°28' E 153°25'0 0.0
2018-Jun-16 12:00S 27°28' E 153°25'0 0.0
2018-Jun-16 11:30S 27°28' E 153°25'0 0.0
2018-Jun-16 11:00S 27°28' E 153°25'0 0.0
2018-Jun-16 10:30S 27°28' E 153°25'0 0.0
2018-Jun-16 04:45S 27°28' E 153°25'0 0.0
2018-Jun-16 04:24S 27°28' E 153°25'0 0.0
2018-Jun-16 04:00S 27°28' E 153°25'0 0.0
2018-Jun-16 01:51S 27°28' E 153°25'0 0.0
2018-Jun-16 01:21S 27°28' E 153°25'0 0.0
2018-Jun-16 00:54S 27°28' E 153°25'0 0.0
2018-Jun-16 00:30S 27°28' E 153°25'0 0.0
2018-Jun-15 23:51S 27°28' E 153°25'0 0.0
2018-Jun-15 23:21S 27°28' E 153°25'0 0.0
2018-Jun-15 22:54S 27°28' E 153°25'0 0.0
2018-Jun-15 21:54S 27°28' E 153°25'0 0.0
2018-Jun-15 20:51S 27°28' E 153°25'0 0.0
2018-Jun-15 18:48S 27°28' E 153°25'0 0.0
2018-Jun-15 17:48S 27°28' E 153°25'0 0.0
2018-Jun-15 17:09S 27°28' E 153°25'0 0.0
2018-Jun-15 16:39S 27°28' E 153°25'0 0.0
2018-Jun-15 13:57S 27°28' E 153°25'0 0.0
2018-Jun-15 12:33S 27°28' E 153°25'0 0.0
2018-Jun-15 12:27S 27°28' E 153°25'0 0.0
2018-Jun-15 09:51S 27°28' E 153°25'0 0.0
2018-Jun-15 09:30S 27°28' E 153°25'1 1.1
2018-Jun-15 08:51S 27°28' E 153°24'2 4.9
2018-Jun-15 08:30S 27°29' E 153°23'4 8.0
2018-Jun-15 08:00S 27°28' E 153°19'4 8.4
2018-Jun-15 07:30S 27°27' E 153°14'  
2018-Jun-10 01:44S 27°30' E 153°22'0 0.0
2018-Jun-10 01:29S 27°30' E 153°22'0 0.0
2018-Jun-10 00:56S 27°30' E 153°22'0 0.0
2018-Jun-10 00:29S 27°30' E 153°22'0 0.0
2018-Jun-09 23:59S 27°30' E 153°22'0 0.0
2018-Jun-09 23:23S 27°30' E 153°22'0 0.0
2018-Jun-09 23:01S 27°30' E 153°22'4 7.6
2018-Jun-09 22:30S 27°34' E 153°24'4 7.9
2018-Jun-09 22:00S 27°37' E 153°24'1 1.7
2018-Jun-09 21:30S 27°38' E 153°25'0 0.0
2018-Jun-09 21:01S 27°38' E 153°25'0 0.0
2018-Jun-09 20:30S 27°38' E 153°25'0 0.0
2018-Jun-09 20:00S 27°38' E 153°25'0 0.0
2018-Jun-09 19:30S 27°38' E 153°25'0 0.0
2018-Jun-09 19:00S 27°38' E 153°25'0 0.0
2018-Jun-09 18:30S 27°38' E 153°25'0 0.0
2018-Jun-09 18:00S 27°38' E 153°25'0 0.0
2018-Jun-09 17:30S 27°38' E 153°25'0 0.0
2018-Jun-09 16:58S 27°38' E 153°25'0 0.0
2018-Jun-09 16:30S 27°38' E 153°25'0 0.0
2018-Jun-09 16:00S 27°38' E 153°25'0 0.0
2018-Jun-09 15:31S 27°38' E 153°25'0 0.0
2018-Jun-09 14:30S 27°38' E 153°25'0 0.0
2018-Jun-09 14:00S 27°38' E 153°25'0 0.0
2018-Jun-09 13:31S 27°38' E 153°25'0 0.0
2018-Jun-09 12:59S 27°38' E 153°25'0 0.0
2018-Jun-09 12:30S 27°38' E 153°25'0 0.0
2018-Jun-09 12:00S 27°38' E 153°25'0 0.0
2018-Jun-09 11:31S 27°38' E 153°25'0 0.0
2018-Jun-09 11:00S 27°38' E 153°25'0 0.0
2018-Jun-09 10:30S 27°38' E 153°25'0 0.0
2018-Jun-09 10:01S 27°38' E 153°25'0 0.0
2018-Jun-09 09:29S 27°38' E 153°25'0 0.0
2018-Jun-09 09:01S 27°38' E 153°25'0 0.0
2018-Jun-09 08:30S 27°38' E 153°25'0 0.0
2018-Jun-09 08:00S 27°38' E 153°25'0 0.8
2018-Jun-09 07:30S 27°38' E 153°25'4 8.6
2018-Jun-09 07:00S 27°34' E 153°24'  

Dump ship's entire track history